sensor_id;sensor_type;location;lat;lon;timestamp;P1;durP1;ratioP1;P2;durP2;ratioP2
65757;SDS011;52495;52.208;5.158;2022-12-20T00:01:37;9.40;;;3.72;;
65757;SDS011;52495;52.208;5.158;2022-12-20T00:04:04;8.60;;;3.97;;
65757;SDS011;52495;52.208;5.158;2022-12-20T00:06:32;8.23;;;4.28;;
65757;SDS011;52495;52.208;5.158;2022-12-20T00:09:02;7.20;;;3.88;;
65757;SDS011;52495;52.208;5.158;2022-12-20T00:11:30;6.90;;;4.05;;
65757;SDS011;52495;52.208;5.158;2022-12-20T00:13:58;5.93;;;3.42;;
65757;SDS011;52495;52.208;5.158;2022-12-20T00:16:25;7.47;;;3.90;;
65757;SDS011;52495;52.208;5.158;2022-12-20T00:18:54;5.85;;;3.50;;
65757;SDS011;52495;52.208;5.158;2022-12-20T00:21:22;6.95;;;3.90;;
65757;SDS011;52495;52.208;5.158;2022-12-20T00:23:49;5.22;;;3.65;;
65757;SDS011;52495;52.208;5.158;2022-12-20T00:26:18;6.43;;;3.53;;
65757;SDS011;52495;52.208;5.158;2022-12-20T00:28:47;5.57;;;3.65;;
65757;SDS011;52495;52.208;5.158;2022-12-20T00:31:15;6.68;;;3.70;;
65757;SDS011;52495;52.208;5.158;2022-12-20T00:33:43;6.57;;;3.70;;
65757;SDS011;52495;52.208;5.158;2022-12-20T00:36:12;5.75;;;3.47;;
65757;SDS011;52495;52.208;5.158;2022-12-20T00:38:39;7.07;;;3.90;;
65757;SDS011;52495;52.208;5.158;2022-12-20T00:41:06;6.13;;;3.67;;
65757;SDS011;52495;52.208;5.158;2022-12-20T00:43:36;5.28;;;3.33;;
65757;SDS011;52495;52.208;5.158;2022-12-20T00:46:04;6.95;;;3.63;;
65757;SDS011;52495;52.208;5.158;2022-12-20T00:48:32;6.95;;;3.60;;
65757;SDS011;52495;52.208;5.158;2022-12-20T00:51:00;4.63;;;2.83;;
65757;SDS011;52495;52.208;5.158;2022-12-20T00:53:28;5.95;;;3.15;;
65757;SDS011;52495;52.208;5.158;2022-12-20T00:55:56;9.88;;;3.15;;
65757;SDS011;52495;52.208;5.158;2022-12-20T00:58:23;8.38;;;3.30;;
65757;SDS011;52495;52.208;5.158;2022-12-20T01:00:52;7.55;;;3.53;;
65757;SDS011;52495;52.208;5.158;2022-12-20T01:03:19;5.85;;;3.25;;
65757;SDS011;52495;52.208;5.158;2022-12-20T01:05:49;4.82;;;3.20;;
65757;SDS011;52495;52.208;5.158;2022-12-20T01:08:17;6.43;;;3.30;;
65757;SDS011;52495;52.208;5.158;2022-12-20T01:10:45;7.35;;;3.20;;
65757;SDS011;52495;52.208;5.158;2022-12-20T01:13:11;4.97;;;2.97;;
65757;SDS011;52495;52.208;5.158;2022-12-20T01:15:38;6.53;;;3.28;;
65757;SDS011;52495;52.208;5.158;2022-12-20T01:18:06;7.68;;;3.40;;
65757;SDS011;52495;52.208;5.158;2022-12-20T01:20:33;6.60;;;3.25;;
65757;SDS011;52495;52.208;5.158;2022-12-20T01:23:00;10.40;;;3.70;;
65757;SDS011;52495;52.208;5.158;2022-12-20T01:25:27;6.68;;;3.47;;
65757;SDS011;52495;52.208;5.158;2022-12-20T01:27:53;6.35;;;3.33;;
65757;SDS011;52495;52.208;5.158;2022-12-20T01:30:20;6.30;;;3.30;;
65757;SDS011;52495;52.208;5.158;2022-12-20T01:32:47;6.63;;;3.95;;
65757;SDS011;52495;52.208;5.158;2022-12-20T01:35:15;10.07;;;3.85;;
65757;SDS011;52495;52.208;5.158;2022-12-20T01:37:42;6.05;;;3.88;;
65757;SDS011;52495;52.208;5.158;2022-12-20T01:40:09;6.28;;;3.50;;
65757;SDS011;52495;52.208;5.158;2022-12-20T01:42:36;6.20;;;3.70;;
65757;SDS011;52495;52.208;5.158;2022-12-20T01:45:04;9.23;;;4.05;;
65757;SDS011;52495;52.208;5.158;2022-12-20T01:47:34;6.78;;;3.63;;
65757;SDS011;52495;52.208;5.158;2022-12-20T01:50:03;5.60;;;4.10;;
65757;SDS011;52495;52.208;5.158;2022-12-20T01:52:33;4.53;;;3.00;;
65757;SDS011;52495;52.208;5.158;2022-12-20T01:55:05;6.38;;;3.35;;
65757;SDS011;52495;52.208;5.158;2022-12-20T01:57:37;6.30;;;3.72;;
65757;SDS011;52495;52.208;5.158;2022-12-20T02:00:08;8.05;;;3.70;;
65757;SDS011;52495;52.208;5.158;2022-12-20T02:02:42;5.90;;;3.53;;
65757;SDS011;52495;52.208;5.158;2022-12-20T02:05:11;6.57;;;3.78;;
65757;SDS011;52495;52.208;5.158;2022-12-20T02:07:40;7.72;;;3.83;;
65757;SDS011;52495;52.208;5.158;2022-12-20T02:10:09;6.00;;;3.72;;
65757;SDS011;52495;52.208;5.158;2022-12-20T02:12:38;6.70;;;3.80;;
65757;SDS011;52495;52.208;5.158;2022-12-20T02:15:14;5.45;;;3.60;;
65757;SDS011;52495;52.208;5.158;2022-12-20T02:17:52;6.45;;;3.90;;
65757;SDS011;52495;52.208;5.158;2022-12-20T02:20:44;7.75;;;4.25;;
65757;SDS011;52495;52.208;5.158;2022-12-20T02:23:29;4.82;;;3.05;;
65757;SDS011;52495;52.208;5.158;2022-12-20T02:26:18;7.18;;;3.85;;
65757;SDS011;52495;52.208;5.158;2022-12-20T02:29:02;5.78;;;3.33;;
65757;SDS011;52495;52.208;5.158;2022-12-20T02:31:43;8.02;;;3.75;;
65757;SDS011;52495;52.208;5.158;2022-12-20T02:34:15;6.47;;;3.75;;
65757;SDS011;52495;52.208;5.158;2022-12-20T02:36:42;5.85;;;3.55;;
65757;SDS011;52495;52.208;5.158;2022-12-20T02:39:10;5.05;;;3.50;;
65757;SDS011;52495;52.208;5.158;2022-12-20T02:41:38;6.30;;;2.92;;
65757;SDS011;52495;52.208;5.158;2022-12-20T02:44:13;4.97;;;3.67;;
65757;SDS011;52495;52.208;5.158;2022-12-20T02:47:00;5.60;;;3.70;;
65757;SDS011;52495;52.208;5.158;2022-12-20T02:49:31;9.15;;;4.30;;
65757;SDS011;52495;52.208;5.158;2022-12-20T02:52:02;7.90;;;3.50;;
65757;SDS011;52495;52.208;5.158;2022-12-20T02:54:31;6.43;;;3.60;;
65757;SDS011;52495;52.208;5.158;2022-12-20T02:56:59;7.28;;;3.97;;
65757;SDS011;52495;52.208;5.158;2022-12-20T02:59:32;5.65;;;3.75;;
65757;SDS011;52495;52.208;5.158;2022-12-20T03:02:06;6.13;;;3.40;;
65757;SDS011;52495;52.208;5.158;2022-12-20T03:04:34;8.10;;;3.90;;
65757;SDS011;52495;52.208;5.158;2022-12-20T03:07:05;7.18;;;3.58;;
65757;SDS011;52495;52.208;5.158;2022-12-20T03:09:33;6.80;;;3.50;;
65757;SDS011;52495;52.208;5.158;2022-12-20T03:12:02;7.95;;;3.50;;
65757;SDS011;52495;52.208;5.158;2022-12-20T03:14:31;4.65;;;2.85;;
65757;SDS011;52495;52.208;5.158;2022-12-20T03:17:00;4.97;;;3.70;;
65757;SDS011;52495;52.208;5.158;2022-12-20T03:19:28;6.05;;;3.60;;
65757;SDS011;52495;52.208;5.158;2022-12-20T03:21:57;5.03;;;3.47;;
65757;SDS011;52495;52.208;5.158;2022-12-20T03:24:23;6.95;;;3.38;;
65757;SDS011;52495;52.208;5.158;2022-12-20T03:26:51;5.97;;;4.05;;
65757;SDS011;52495;52.208;5.158;2022-12-20T03:29:21;5.10;;;3.22;;
65757;SDS011;52495;52.208;5.158;2022-12-20T03:31:48;6.03;;;3.60;;
65757;SDS011;52495;52.208;5.158;2022-12-20T03:34:15;12.02;;;3.75;;
65757;SDS011;52495;52.208;5.158;2022-12-20T03:36:43;6.80;;;3.65;;
65757;SDS011;52495;52.208;5.158;2022-12-20T03:39:10;6.93;;;3.45;;
65757;SDS011;52495;52.208;5.158;2022-12-20T03:41:39;7.72;;;3.70;;
65757;SDS011;52495;52.208;5.158;2022-12-20T03:44:08;8.98;;;3.90;;
65757;SDS011;52495;52.208;5.158;2022-12-20T03:46:35;7.22;;;3.55;;
65757;SDS011;52495;52.208;5.158;2022-12-20T03:49:02;5.63;;;3.25;;
65757;SDS011;52495;52.208;5.158;2022-12-20T03:51:30;7.15;;;3.83;;
65757;SDS011;52495;52.208;5.158;2022-12-20T03:53:58;5.00;;;3.40;;
65757;SDS011;52495;52.208;5.158;2022-12-20T03:56:41;6.72;;;3.70;;
65757;SDS011;52495;52.208;5.158;2022-12-20T03:59:08;4.70;;;2.80;;
65757;SDS011;52495;52.208;5.158;2022-12-20T04:01:34;7.85;;;3.72;;
65757;SDS011;52495;52.208;5.158;2022-12-20T04:04:03;5.57;;;3.63;;
65757;SDS011;52495;52.208;5.158;2022-12-20T04:06:30;5.85;;;3.17;;
65757;SDS011;52495;52.208;5.158;2022-12-20T04:08:58;6.28;;;3.60;;
65757;SDS011;52495;52.208;5.158;2022-12-20T04:11:29;6.75;;;3.58;;
65757;SDS011;52495;52.208;5.158;2022-12-20T04:14:10;5.25;;;3.53;;
65757;SDS011;52495;52.208;5.158;2022-12-20T04:16:36;5.72;;;3.20;;
65757;SDS011;52495;52.208;5.158;2022-12-20T04:19:04;7.57;;;3.50;;
65757;SDS011;52495;52.208;5.158;2022-12-20T04:21:39;6.10;;;3.50;;
65757;SDS011;52495;52.208;5.158;2022-12-20T04:24:07;6.68;;;3.28;;
65757;SDS011;52495;52.208;5.158;2022-12-20T04:26:57;6.40;;;3.28;;
65757;SDS011;52495;52.208;5.158;2022-12-20T04:29:24;6.25;;;3.30;;
65757;SDS011;52495;52.208;5.158;2022-12-20T04:31:50;5.43;;;3.38;;
65757;SDS011;52495;52.208;5.158;2022-12-20T04:34:18;6.60;;;3.58;;
65757;SDS011;52495;52.208;5.158;2022-12-20T04:36:45;5.25;;;3.03;;
65757;SDS011;52495;52.208;5.158;2022-12-20T04:39:21;5.22;;;3.13;;
65757;SDS011;52495;52.208;5.158;2022-12-20T04:42:13;7.25;;;3.55;;
65757;SDS011;52495;52.208;5.158;2022-12-20T04:44:40;6.10;;;3.05;;
65757;SDS011;52495;52.208;5.158;2022-12-20T04:47:09;5.03;;;3.13;;
65757;SDS011;52495;52.208;5.158;2022-12-20T04:49:36;7.10;;;3.42;;
65757;SDS011;52495;52.208;5.158;2022-12-20T04:52:03;4.82;;;3.03;;
65757;SDS011;52495;52.208;5.158;2022-12-20T04:54:46;8.27;;;3.90;;
65757;SDS011;52495;52.208;5.158;2022-12-20T04:57:17;7.13;;;3.58;;
65757;SDS011;52495;52.208;5.158;2022-12-20T04:59:44;6.32;;;3.42;;
65757;SDS011;52495;52.208;5.158;2022-12-20T05:02:12;5.88;;;3.65;;
65757;SDS011;52495;52.208;5.158;2022-12-20T05:04:49;7.07;;;3.70;;
65757;SDS011;52495;52.208;5.158;2022-12-20T05:07:16;5.75;;;3.70;;
65757;SDS011;52495;52.208;5.158;2022-12-20T05:09:50;6.35;;;3.55;;
65757;SDS011;52495;52.208;5.158;2022-12-20T05:12:17;5.70;;;3.67;;
65757;SDS011;52495;52.208;5.158;2022-12-20T05:14:43;9.98;;;3.83;;
65757;SDS011;52495;52.208;5.158;2022-12-20T05:17:12;11.52;;;3.78;;
65757;SDS011;52495;52.208;5.158;2022-12-20T05:19:38;5.35;;;3.50;;
65757;SDS011;52495;52.208;5.158;2022-12-20T05:22:05;6.80;;;3.75;;
65757;SDS011;52495;52.208;5.158;2022-12-20T05:25:09;6.00;;;3.88;;
65757;SDS011;52495;52.208;5.158;2022-12-20T05:27:56;5.72;;;3.53;;
65757;SDS011;52495;52.208;5.158;2022-12-20T05:30:25;6.50;;;3.85;;
65757;SDS011;52495;52.208;5.158;2022-12-20T05:32:52;6.38;;;3.95;;
65757;SDS011;52495;52.208;5.158;2022-12-20T05:35:19;5.35;;;3.20;;
65757;SDS011;52495;52.208;5.158;2022-12-20T05:37:51;10.93;;;4.40;;
65757;SDS011;52495;52.208;5.158;2022-12-20T05:40:20;6.43;;;3.05;;
65757;SDS011;52495;52.208;5.158;2022-12-20T05:42:50;8.75;;;3.88;;
65757;SDS011;52495;52.208;5.158;2022-12-20T05:45:18;8.13;;;4.20;;
65757;SDS011;52495;52.208;5.158;2022-12-20T05:47:55;6.22;;;3.55;;
65757;SDS011;52495;52.208;5.158;2022-12-20T05:50:22;7.85;;;3.70;;
65757;SDS011;52495;52.208;5.158;2022-12-20T05:53:16;6.60;;;3.85;;
65757;SDS011;52495;52.208;5.158;2022-12-20T05:55:50;6.57;;;3.78;;
65757;SDS011;52495;52.208;5.158;2022-12-20T05:58:20;7.30;;;3.92;;
65757;SDS011;52495;52.208;5.158;2022-12-20T06:00:58;6.18;;;3.85;;
65757;SDS011;52495;52.208;5.158;2022-12-20T06:03:26;6.95;;;4.03;;
65757;SDS011;52495;52.208;5.158;2022-12-20T06:05:54;7.63;;;3.90;;
65757;SDS011;52495;52.208;5.158;2022-12-20T06:08:27;8.80;;;4.30;;
65757;SDS011;52495;52.208;5.158;2022-12-20T06:10:56;5.93;;;3.90;;
65757;SDS011;52495;52.208;5.158;2022-12-20T06:13:23;7.22;;;3.92;;
65757;SDS011;52495;52.208;5.158;2022-12-20T06:15:52;10.07;;;4.50;;
65757;SDS011;52495;52.208;5.158;2022-12-20T06:18:19;7.15;;;4.13;;
65757;SDS011;52495;52.208;5.158;2022-12-20T06:20:49;6.68;;;4.20;;
65757;SDS011;52495;52.208;5.158;2022-12-20T06:23:20;6.47;;;3.83;;
65757;SDS011;52495;52.208;5.158;2022-12-20T06:26:04;7.03;;;3.28;;
65757;SDS011;52495;52.208;5.158;2022-12-20T06:28:35;6.68;;;3.35;;
65757;SDS011;52495;52.208;5.158;2022-12-20T06:31:07;7.25;;;3.20;;
65757;SDS011;52495;52.208;5.158;2022-12-20T06:33:41;8.40;;;3.22;;
65757;SDS011;52495;52.208;5.158;2022-12-20T06:36:09;5.30;;;3.22;;
65757;SDS011;52495;52.208;5.158;2022-12-20T06:38:36;5.72;;;3.38;;
65757;SDS011;52495;52.208;5.158;2022-12-20T06:41:05;5.03;;;2.85;;
65757;SDS011;52495;52.208;5.158;2022-12-20T06:43:32;7.22;;;3.53;;
65757;SDS011;52495;52.208;5.158;2022-12-20T06:45:58;9.10;;;3.30;;
65757;SDS011;52495;52.208;5.158;2022-12-20T06:48:25;6.85;;;2.95;;
65757;SDS011;52495;52.208;5.158;2022-12-20T06:50:51;5.38;;;2.70;;
65757;SDS011;52495;52.208;5.158;2022-12-20T06:53:19;5.05;;;2.70;;
65757;SDS011;52495;52.208;5.158;2022-12-20T06:55:46;7.53;;;3.50;;
65757;SDS011;52495;52.208;5.158;2022-12-20T06:58:16;5.55;;;2.88;;
65757;SDS011;52495;52.208;5.158;2022-12-20T07:00:44;5.00;;;2.95;;
65757;SDS011;52495;52.208;5.158;2022-12-20T07:03:11;5.55;;;3.10;;
65757;SDS011;52495;52.208;5.158;2022-12-20T07:05:38;4.63;;;3.10;;
65757;SDS011;52495;52.208;5.158;2022-12-20T07:08:05;4.50;;;2.67;;
65757;SDS011;52495;52.208;5.158;2022-12-20T07:10:34;6.85;;;3.03;;
65757;SDS011;52495;52.208;5.158;2022-12-20T07:13:02;6.10;;;3.35;;
65757;SDS011;52495;52.208;5.158;2022-12-20T07:15:30;5.65;;;3.03;;
65757;SDS011;52495;52.208;5.158;2022-12-20T07:17:57;5.72;;;2.58;;
65757;SDS011;52495;52.208;5.158;2022-12-20T07:20:23;5.22;;;2.60;;
65757;SDS011;52495;52.208;5.158;2022-12-20T07:22:50;6.65;;;3.03;;
65757;SDS011;52495;52.208;5.158;2022-12-20T07:25:17;4.35;;;2.58;;
65757;SDS011;52495;52.208;5.158;2022-12-20T07:27:45;6.05;;;2.67;;
65757;SDS011;52495;52.208;5.158;2022-12-20T07:30:12;4.63;;;2.80;;
65757;SDS011;52495;52.208;5.158;2022-12-20T07:32:40;6.32;;;3.15;;
65757;SDS011;52495;52.208;5.158;2022-12-20T07:35:08;4.47;;;2.72;;
65757;SDS011;52495;52.208;5.158;2022-12-20T07:37:35;5.82;;;2.75;;
65757;SDS011;52495;52.208;5.158;2022-12-20T07:40:03;5.45;;;2.60;;
65757;SDS011;52495;52.208;5.158;2022-12-20T07:42:31;4.40;;;2.65;;
65757;SDS011;52495;52.208;5.158;2022-12-20T07:44:58;5.82;;;3.20;;
65757;SDS011;52495;52.208;5.158;2022-12-20T07:47:24;4.07;;;2.50;;
65757;SDS011;52495;52.208;5.158;2022-12-20T07:49:53;5.93;;;2.67;;
65757;SDS011;52495;52.208;5.158;2022-12-20T07:52:20;5.18;;;2.70;;
65757;SDS011;52495;52.208;5.158;2022-12-20T07:54:50;6.05;;;2.63;;
65757;SDS011;52495;52.208;5.158;2022-12-20T07:57:22;6.07;;;2.33;;
65757;SDS011;52495;52.208;5.158;2022-12-20T07:59:53;3.95;;;2.30;;
65757;SDS011;52495;52.208;5.158;2022-12-20T08:02:25;4.97;;;2.63;;
65757;SDS011;52495;52.208;5.158;2022-12-20T08:04:57;7.18;;;2.75;;
65757;SDS011;52495;52.208;5.158;2022-12-20T08:07:25;6.40;;;4.50;;
65757;SDS011;52495;52.208;5.158;2022-12-20T08:09:53;7.40;;;3.92;;
65757;SDS011;52495;52.208;5.158;2022-12-20T08:12:20;6.70;;;3.17;;
65757;SDS011;52495;52.208;5.158;2022-12-20T08:14:48;7.80;;;4.80;;
65757;SDS011;52495;52.208;5.158;2022-12-20T08:17:20;6.78;;;2.88;;
65757;SDS011;52495;52.208;5.158;2022-12-20T08:19:46;8.13;;;3.13;;
65757;SDS011;52495;52.208;5.158;2022-12-20T08:22:17;5.05;;;2.80;;
65757;SDS011;52495;52.208;5.158;2022-12-20T08:24:44;4.20;;;2.60;;
65757;SDS011;52495;52.208;5.158;2022-12-20T08:27:11;5.95;;;3.10;;
65757;SDS011;52495;52.208;5.158;2022-12-20T08:29:39;10.30;;;4.75;;
65757;SDS011;52495;52.208;5.158;2022-12-20T08:32:06;8.32;;;5.70;;
65757;SDS011;52495;52.208;5.158;2022-12-20T08:34:32;8.40;;;6.45;;
65757;SDS011;52495;52.208;5.158;2022-12-20T08:36:59;8.05;;;3.22;;
65757;SDS011;52495;52.208;5.158;2022-12-20T08:39:27;4.88;;;2.90;;
65757;SDS011;52495;52.208;5.158;2022-12-20T08:41:54;7.00;;;3.20;;
65757;SDS011;52495;52.208;5.158;2022-12-20T08:44:21;5.28;;;2.85;;
65757;SDS011;52495;52.208;5.158;2022-12-20T08:46:48;6.20;;;3.17;;
65757;SDS011;52495;52.208;5.158;2022-12-20T08:49:14;7.03;;;2.85;;
65757;SDS011;52495;52.208;5.158;2022-12-20T08:51:41;6.97;;;2.90;;
65757;SDS011;52495;52.208;5.158;2022-12-20T08:54:08;5.60;;;2.97;;
65757;SDS011;52495;52.208;5.158;2022-12-20T08:56:36;5.72;;;2.70;;
65757;SDS011;52495;52.208;5.158;2022-12-20T08:59:02;6.88;;;3.25;;
65757;SDS011;52495;52.208;5.158;2022-12-20T09:01:30;7.40;;;2.60;;
65757;SDS011;52495;52.208;5.158;2022-12-20T09:03:57;10.80;;;3.10;;
65757;SDS011;52495;52.208;5.158;2022-12-20T09:06:24;6.18;;;3.08;;
65757;SDS011;52495;52.208;5.158;2022-12-20T09:08:51;5.75;;;2.92;;
65757;SDS011;52495;52.208;5.158;2022-12-20T09:11:20;6.00;;;2.70;;
65757;SDS011;52495;52.208;5.158;2022-12-20T09:13:50;6.38;;;2.97;;
65757;SDS011;52495;52.208;5.158;2022-12-20T09:16:19;5.43;;;3.10;;
65757;SDS011;52495;52.208;5.158;2022-12-20T09:18:48;5.53;;;2.70;;
65757;SDS011;52495;52.208;5.158;2022-12-20T09:21:15;5.18;;;2.90;;
65757;SDS011;52495;52.208;5.158;2022-12-20T09:23:44;7.85;;;3.50;;
65757;SDS011;52495;52.208;5.158;2022-12-20T09:26:11;5.53;;;2.95;;
65757;SDS011;52495;52.208;5.158;2022-12-20T09:28:40;6.38;;;3.17;;
65757;SDS011;52495;52.208;5.158;2022-12-20T09:31:09;6.35;;;2.88;;
65757;SDS011;52495;52.208;5.158;2022-12-20T09:33:37;5.75;;;3.10;;
65757;SDS011;52495;52.208;5.158;2022-12-20T09:36:04;4.85;;;3.03;;
65757;SDS011;52495;52.208;5.158;2022-12-20T09:38:32;7.40;;;3.15;;
65757;SDS011;52495;52.208;5.158;2022-12-20T09:41:01;8.15;;;3.25;;
65757;SDS011;52495;52.208;5.158;2022-12-20T09:43:30;6.53;;;3.17;;
65757;SDS011;52495;52.208;5.158;2022-12-20T09:45:58;9.25;;;3.20;;
65757;SDS011;52495;52.208;5.158;2022-12-20T09:48:29;8.57;;;3.00;;
65757;SDS011;52495;52.208;5.158;2022-12-20T09:51:01;7.27;;;3.40;;
65757;SDS011;52495;52.208;5.158;2022-12-20T09:53:38;5.35;;;3.20;;
65757;SDS011;52495;52.208;5.158;2022-12-20T09:56:18;5.75;;;3.30;;
65757;SDS011;52495;52.208;5.158;2022-12-20T09:58:55;5.03;;;3.30;;
65757;SDS011;52495;52.208;5.158;2022-12-20T10:01:25;5.60;;;2.95;;
65757;SDS011;52495;52.208;5.158;2022-12-20T10:03:55;5.50;;;3.42;;
65757;SDS011;52495;52.208;5.158;2022-12-20T10:06:26;4.97;;;2.90;;
65757;SDS011;52495;52.208;5.158;2022-12-20T10:09:02;8.00;;;3.28;;
65757;SDS011;52495;52.208;5.158;2022-12-20T10:11:40;7.50;;;3.42;;
65757;SDS011;52495;52.208;5.158;2022-12-20T10:14:32;6.68;;;3.28;;
65757;SDS011;52495;52.208;5.158;2022-12-20T10:17:18;6.57;;;3.67;;
65757;SDS011;52495;52.208;5.158;2022-12-20T10:20:01;7.68;;;3.70;;
65757;SDS011;52495;52.208;5.158;2022-12-20T10:22:36;5.60;;;3.65;;
65757;SDS011;52495;52.208;5.158;2022-12-20T10:25:12;5.22;;;3.47;;
65757;SDS011;52495;52.208;5.158;2022-12-20T10:27:42;7.38;;;3.50;;
65757;SDS011;52495;52.208;5.158;2022-12-20T10:30:12;8.10;;;3.72;;
65757;SDS011;52495;52.208;5.158;2022-12-20T10:32:41;8.93;;;4.00;;
65757;SDS011;52495;52.208;5.158;2022-12-20T10:35:18;6.55;;;3.90;;
65757;SDS011;52495;52.208;5.158;2022-12-20T10:37:55;5.97;;;3.70;;
65757;SDS011;52495;52.208;5.158;2022-12-20T10:40:25;8.43;;;3.67;;
65757;SDS011;52495;52.208;5.158;2022-12-20T10:42:53;9.40;;;4.35;;
65757;SDS011;52495;52.208;5.158;2022-12-20T10:45:26;13.70;;;4.75;;
65757;SDS011;52495;52.208;5.158;2022-12-20T10:47:58;6.47;;;4.05;;
65757;SDS011;52495;52.208;5.158;2022-12-20T10:50:29;11.35;;;4.20;;
65757;SDS011;52495;52.208;5.158;2022-12-20T10:53:11;11.07;;;4.63;;
65757;SDS011;52495;52.208;5.158;2022-12-20T10:55:51;7.78;;;4.10;;
65757;SDS011;52495;52.208;5.158;2022-12-20T10:58:28;8.32;;;4.25;;
65757;SDS011;52495;52.208;5.158;2022-12-20T11:01:03;7.80;;;4.20;;
65757;SDS011;52495;52.208;5.158;2022-12-20T11:03:32;7.00;;;4.43;;
65757;SDS011;52495;52.208;5.158;2022-12-20T11:06:01;6.30;;;4.10;;
65757;SDS011;52495;52.208;5.158;2022-12-20T11:08:29;8.88;;;4.57;;
65757;SDS011;52495;52.208;5.158;2022-12-20T11:11:12;7.82;;;4.60;;
65757;SDS011;52495;52.208;5.158;2022-12-20T11:13:40;8.93;;;5.03;;
65757;SDS011;52495;52.208;5.158;2022-12-20T11:16:21;8.77;;;4.90;;
65757;SDS011;52495;52.208;5.158;2022-12-20T11:18:50;7.75;;;4.68;;
65757;SDS011;52495;52.208;5.158;2022-12-20T11:21:29;8.40;;;4.38;;
65757;SDS011;52495;52.208;5.158;2022-12-20T11:24:07;8.48;;;4.97;;
65757;SDS011;52495;52.208;5.158;2022-12-20T11:26:41;9.18;;;4.60;;
65757;SDS011;52495;52.208;5.158;2022-12-20T11:29:24;8.30;;;5.10;;
65757;SDS011;52495;52.208;5.158;2022-12-20T11:32:07;8.85;;;5.05;;
65757;SDS011;52495;52.208;5.158;2022-12-20T11:34:48;7.00;;;4.55;;
65757;SDS011;52495;52.208;5.158;2022-12-20T11:37:25;5.80;;;4.78;;
65757;SDS011;52495;52.208;5.158;2022-12-20T11:39:57;5.57;;;4.25;;
65757;SDS011;52495;52.208;5.158;2022-12-20T11:42:35;6.00;;;4.47;;
65757;SDS011;52495;52.208;5.158;2022-12-20T11:45:14;7.27;;;5.30;;
65757;SDS011;52495;52.208;5.158;2022-12-20T11:47:55;7.03;;;5.03;;
65757;SDS011;52495;52.208;5.158;2022-12-20T11:50:41;7.40;;;4.82;;
65757;SDS011;52495;52.208;5.158;2022-12-20T11:53:21;7.45;;;5.82;;
65757;SDS011;52495;52.208;5.158;2022-12-20T11:55:53;7.47;;;5.47;;
65757;SDS011;52495;52.208;5.158;2022-12-20T11:58:25;8.95;;;5.45;;
65757;SDS011;52495;52.208;5.158;2022-12-20T12:00:55;7.35;;;5.32;;
65757;SDS011;52495;52.208;5.158;2022-12-20T12:03:27;10.43;;;6.57;;
65757;SDS011;52495;52.208;5.158;2022-12-20T12:05:59;8.50;;;5.57;;
65757;SDS011;52495;52.208;5.158;2022-12-20T12:08:33;8.75;;;6.20;;
65757;SDS011;52495;52.208;5.158;2022-12-20T12:11:10;12.65;;;6.35;;
65757;SDS011;52495;52.208;5.158;2022-12-20T12:13:42;12.63;;;6.38;;
65757;SDS011;52495;52.208;5.158;2022-12-20T12:16:10;10.32;;;6.50;;
65757;SDS011;52495;52.208;5.158;2022-12-20T12:18:41;8.02;;;5.85;;
65757;SDS011;52495;52.208;5.158;2022-12-20T12:21:10;9.65;;;6.22;;
65757;SDS011;52495;52.208;5.158;2022-12-20T12:23:46;12.65;;;7.18;;
65757;SDS011;52495;52.208;5.158;2022-12-20T12:26:20;10.43;;;6.95;;
65757;SDS011;52495;52.208;5.158;2022-12-20T12:28:51;9.27;;;7.25;;
65757;SDS011;52495;52.208;5.158;2022-12-20T12:31:21;8.88;;;6.88;;
65757;SDS011;52495;52.208;5.158;2022-12-20T12:33:59;13.38;;;8.38;;
65757;SDS011;52495;52.208;5.158;2022-12-20T12:36:49;8.50;;;6.40;;
65757;SDS011;52495;52.208;5.158;2022-12-20T12:39:47;8.38;;;6.57;;
65757;SDS011;52495;52.208;5.158;2022-12-20T12:42:42;8.40;;;6.68;;
65757;SDS011;52495;52.208;5.158;2022-12-20T12:45:27;9.00;;;6.38;;
65757;SDS011;52495;52.208;5.158;2022-12-20T12:47:58;12.27;;;6.80;;
65757;SDS011;52495;52.208;5.158;2022-12-20T12:50:29;10.35;;;7.07;;
65757;SDS011;52495;52.208;5.158;2022-12-20T12:53:11;8.90;;;6.33;;
65757;SDS011;52495;52.208;5.158;2022-12-20T12:55:43;7.90;;;6.43;;
65757;SDS011;52495;52.208;5.158;2022-12-20T12:58:12;10.02;;;7.03;;
65757;SDS011;52495;52.208;5.158;2022-12-20T13:00:48;9.05;;;6.78;;
65757;SDS011;52495;52.208;5.158;2022-12-20T13:03:33;8.30;;;6.20;;
65757;SDS011;52495;52.208;5.158;2022-12-20T13:09:39;9.68;;;7.30;;
65757;SDS011;52495;52.208;5.158;2022-12-20T13:18:36;9.05;;;7.25;;
65757;SDS011;52495;52.208;5.158;2022-12-20T13:27:25;10.20;;;7.72;;
65757;SDS011;52495;52.208;5.158;2022-12-20T13:32:56;10.40;;;8.75;;
65757;SDS011;52495;52.208;5.158;2022-12-20T13:36:04;10.97;;;8.33;;
65757;SDS011;52495;52.208;5.158;2022-12-20T13:38:57;11.70;;;8.13;;
65757;SDS011;52495;52.208;5.158;2022-12-20T13:41:30;10.85;;;9.18;;
65757;SDS011;52495;52.208;5.158;2022-12-20T13:44:02;12.52;;;8.45;;
65757;SDS011;52495;52.208;5.158;2022-12-20T13:46:46;8.02;;;7.22;;
65757;SDS011;52495;52.208;5.158;2022-12-20T13:49:19;10.82;;;8.32;;
65757;SDS011;52495;52.208;5.158;2022-12-20T13:52:05;10.27;;;8.20;;
65757;SDS011;52495;52.208;5.158;2022-12-20T13:54:38;10.27;;;8.57;;
65757;SDS011;52495;52.208;5.158;2022-12-20T13:57:07;12.00;;;8.85;;
65757;SDS011;52495;52.208;5.158;2022-12-20T13:59:42;12.40;;;8.30;;
65757;SDS011;52495;52.208;5.158;2022-12-20T14:02:16;10.60;;;8.15;;
65757;SDS011;52495;52.208;5.158;2022-12-20T14:04:50;10.55;;;8.68;;
65757;SDS011;52495;52.208;5.158;2022-12-20T14:07:23;10.95;;;8.18;;
65757;SDS011;52495;52.208;5.158;2022-12-20T14:09:56;9.20;;;7.70;;
65757;SDS011;52495;52.208;5.158;2022-12-20T14:12:25;10.07;;;8.40;;
65757;SDS011;52495;52.208;5.158;2022-12-20T14:14:53;9.70;;;8.70;;
65757;SDS011;52495;52.208;5.158;2022-12-20T14:17:24;9.93;;;8.82;;
65757;SDS011;52495;52.208;5.158;2022-12-20T14:20:12;12.75;;;9.38;;
65757;SDS011;52495;52.208;5.158;2022-12-20T14:22:41;11.40;;;9.05;;
65757;SDS011;52495;52.208;5.158;2022-12-20T14:25:16;9.77;;;8.75;;
65757;SDS011;52495;52.208;5.158;2022-12-20T14:27:51;10.35;;;9.35;;
65757;SDS011;52495;52.208;5.158;2022-12-20T14:30:25;12.60;;;9.30;;
65757;SDS011;52495;52.208;5.158;2022-12-20T14:32:54;10.70;;;8.82;;
65757;SDS011;52495;52.208;5.158;2022-12-20T14:35:23;11.63;;;10.00;;
65757;SDS011;52495;52.208;5.158;2022-12-20T14:37:54;11.13;;;9.85;;
65757;SDS011;52495;52.208;5.158;2022-12-20T14:40:24;11.43;;;10.27;;
65757;SDS011;52495;52.208;5.158;2022-12-20T14:42:51;13.23;;;9.75;;
65757;SDS011;52495;52.208;5.158;2022-12-20T14:45:19;11.10;;;9.77;;
65757;SDS011;52495;52.208;5.158;2022-12-20T14:47:49;13.38;;;10.07;;
65757;SDS011;52495;52.208;5.158;2022-12-20T14:50:23;11.52;;;10.18;;
65757;SDS011;52495;52.208;5.158;2022-12-20T14:52:54;12.20;;;10.13;;
65757;SDS011;52495;52.208;5.158;2022-12-20T14:55:23;12.52;;;11.25;;
65757;SDS011;52495;52.208;5.158;2022-12-20T14:57:53;12.60;;;11.38;;
65757;SDS011;52495;52.208;5.158;2022-12-20T15:00:22;13.85;;;11.18;;
65757;SDS011;52495;52.208;5.158;2022-12-20T15:02:57;12.88;;;11.48;;
65757;SDS011;52495;52.208;5.158;2022-12-20T15:08:17;15.70;;;12.80;;
65757;SDS011;52495;52.208;5.158;2022-12-20T15:10:48;15.57;;;12.82;;
65757;SDS011;52495;52.208;5.158;2022-12-20T15:13:19;13.25;;;11.85;;
65757;SDS011;52495;52.208;5.158;2022-12-20T15:15:48;15.00;;;12.75;;
65757;SDS011;52495;52.208;5.158;2022-12-20T15:18:15;13.90;;;12.43;;
65757;SDS011;52495;52.208;5.158;2022-12-20T15:20:44;13.57;;;12.18;;
65757;SDS011;52495;52.208;5.158;2022-12-20T15:23:15;13.75;;;12.35;;
65757;SDS011;52495;52.208;5.158;2022-12-20T15:25:43;13.77;;;12.35;;
65757;SDS011;52495;52.208;5.158;2022-12-20T15:28:15;16.40;;;13.57;;
65757;SDS011;52495;52.208;5.158;2022-12-20T15:30:43;16.17;;;12.70;;
65757;SDS011;52495;52.208;5.158;2022-12-20T15:33:13;16.30;;;13.75;;